Time;durP1;ratioP1;P1;durP2;ratioP2;P2;SDS_P1;SDS_P2;PMS_P1;PMS_P2;Temp;Humidity;BMP_temperature;BMP_pressure;BME280_temperature;BME280_humidity;BME280_pressure;Samples;Min_cycle;Max_cycle;Signal;HPM_P1;HPM_P2
2023/09/22 00:03:41;;;;;;;6.90;4.50;;;;;;;19.61;100.00;98725.20;180355;1262;44743;-61
2023/09/22 00:07:46;;;;;;;4.60;3.10;;;;;;;19.66;100.00;98726.40;180231;1260;57517;-61
2023/09/22 00:11:50;;;;;;;10.70;4.10;;;;;;;19.71;100.00;98722.54;180349;1260;43652;-61
2023/09/22 00:16:04;;;;;;;8.50;4.70;;;;;;;19.74;100.00;98715.96;180184;1259;45912;-61
2023/09/22 00:20:13;;;;;;;5.50;4.00;;;;;;;19.72;100.00;98711.23;180223;1260;45869;-61
2023/09/22 00:24:18;;;;;;;11.90;4.90;;;;;;;19.64;100.00;98702.06;180413;1261;45988;-61
2023/09/22 00:28:21;;;;;;;5.90;3.90;;;;;;;19.62;100.00;98700.54;180344;1262;57243;-61
2023/09/22 00:32:24;;;;;;;7.60;4.00;;;;;;;19.59;100.00;98704.52;180291;1260;43723;-61
2023/09/22 00:36:28;;;;;;;7.70;3.90;;;;;;;19.52;100.00;98704.80;180265;1263;44420;-61
2023/09/22 00:40:33;;;;;;;7.00;3.20;;;;;;;19.46;100.00;98698.27;180240;1264;45479;-61
2023/09/22 00:44:36;;;;;;;7.00;4.10;;;;;;;19.45;100.00;98703.42;180123;1261;43511;-61
2023/09/22 00:48:41;;;;;;;10.40;4.40;;;;;;;19.46;100.00;98696.06;180263;1260;57153;-61
2023/09/22 00:52:45;;;;;;;4.80;3.20;;;;;;;19.46;100.00;98692.67;180229;1260;45962;-61
2023/09/22 00:56:51;;;;;;;7.90;3.80;;;;;;;19.39;100.00;98693.90;180185;1261;45998;-61
2023/09/22 01:00:54;;;;;;;7.50;3.70;;;;;;;19.37;100.00;98693.42;180162;1260;46044;-61
2023/09/22 01:04:58;;;;;;;5.90;3.80;;;;;;;19.41;100.00;98691.59;180791;1257;43946;-60
2023/09/22 01:09:05;;;;;;;8.60;4.00;;;;;;;19.44;100.00;98692.64;180394;1259;58937;-60
2023/09/22 01:13:11;;;;;;;8.40;3.30;;;;;;;19.46;100.00;98693.33;180410;1259;45061;-60
2023/09/22 01:17:30;;;;;;;4.60;2.90;;;;;;;19.48;100.00;98693.64;180314;1259;44876;-60
2023/09/22 01:21:34;;;;;;;16.10;5.20;;;;;;;19.53;100.00;98698.37;180380;1259;43800;-60
2023/09/22 01:25:43;;;;;;;5.90;3.70;;;;;;;19.53;100.00;98701.38;180365;1259;43535;-60
2023/09/22 01:29:47;;;;;;;6.80;4.30;;;;;;;19.52;100.00;98706.00;180459;1263;58876;-60
2023/09/22 01:33:50;;;;;;;9.10;4.40;;;;;;;19.53;100.00;98708.82;180308;1259;44652;-60
2023/09/22 01:38:10;;;;;;;6.50;4.90;;;;;;;19.53;100.00;98714.38;180381;1259;45892;-60
2023/09/22 01:42:13;;;;;;;6.70;3.70;;;;;;;19.51;100.00;98715.89;180460;1259;43814;-60
2023/09/22 01:46:19;;;;;;;7.00;3.00;;;;;;;19.46;100.00;98710.55;180310;1260;43527;-60
2023/09/22 01:50:24;;;;;;;6.30;4.20;;;;;;;19.41;100.00;98708.10;180375;1259;58478;-60
2023/09/22 01:54:29;;;;;;;5.50;3.20;;;;;;;19.38;100.00;98705.45;180414;1259;44848;-59
2023/09/22 01:58:38;;;;;;;6.90;3.70;;;;;;;19.34;100.00;98711.36;180431;1261;44948;-60
2023/09/22 02:02:43;;;;;;;10.60;5.10;;;;;;;19.30;100.00;98705.69;180513;1259;43689;-60
2023/09/22 02:06:46;;;;;;;11.60;4.50;;;;;;;19.27;100.00;98704.10;180530;1259;43587;-60
2023/09/22 02:11:16;;;;;;;6.00;4.00;;;;;;;19.24;100.00;98700.14;180416;1259;59299;-60
2023/09/22 02:15:20;;;;;;;6.40;4.00;;;;;;;19.25;100.00;98702.85;180390;1259;44594;-61
2023/09/22 02:19:23;;;;;;;5.40;3.70;;;;;;;19.25;100.00;98701.98;180434;1259;43594;-60
2023/09/22 02:23:26;;;;;;;9.70;5.00;;;;;;;19.19;100.00;98696.36;180345;1263;43536;-60
2023/09/22 02:27:30;;;;;;;11.60;4.30;;;;;;;19.11;100.00;98690.18;180435;1261;46056;-60
2023/09/22 02:31:34;;;;;;;5.20;3.30;;;;;;;19.02;100.00;98688.89;180281;1261;58954;-60
2023/09/22 02:35:42;;;;;;;8.80;4.70;;;;;;;19.00;100.00;98695.69;180527;1259;43628;-60
2023/09/22 02:40:05;;;;;;;12.30;4.10;;;;;;;18.97;100.00;98700.91;180526;1259;45991;-60
2023/09/22 02:44:10;;;;;;;7.90;4.20;;;;;;;18.95;100.00;98705.94;180406;1258;44665;-60
2023/09/22 02:48:13;;;;;;;10.30;4.30;;;;;;;18.94;100.00;98707.58;180438;1263;43629;-60
2023/09/22 02:52:16;;;;;;;7.30;4.10;;;;;;;18.85;100.00;98702.74;180484;1259;58532;-60
2023/09/22 02:56:20;;;;;;;14.90;4.30;;;;;;;18.72;100.00;98708.65;180250;1259;45922;-60
2023/09/22 03:00:23;;;;;;;14.00;5.60;;;;;;;18.66;100.00;98715.47;180489;1260;45057;-60
2023/09/22 03:04:31;;;;;;;5.40;4.00;;;;;;;18.67;100.00;98718.62;180396;1259;46145;-60
2023/09/22 03:08:37;;;;;;;10.50;4.50;;;;;;;18.56;100.00;98716.42;180398;1260;44763;-60
2023/09/22 03:12:42;;;;;;;5.30;4.70;;;;;;;18.52;100.00;98711.92;180369;1260;58465;-60
2023/09/22 03:16:47;;;;;;;7.80;5.10;;;;;;;18.53;100.00;98707.39;180314;1259;43811;-59
2023/09/22 03:20:50;;;;;;;5.90;3.20;;;;;;;18.50;100.00;98701.80;180447;1260;43745;-60
2023/09/22 03:24:57;;;;;;;6.90;3.30;;;;;;;18.48;100.00;98703.81;180306;1258;45957;-60
2023/09/22 03:29:04;;;;;;;6.00;3.20;;;;;;;18.36;100.00;98702.20;180425;1261;44582;-60
2023/09/22 03:33:08;;;;;;;5.90;3.40;;;;;;;18.42;100.00;98701.30;180445;1259;58465;-60
2023/09/22 03:37:14;;;;;;;8.10;3.60;;;;;;;18.47;100.00;98704.91;180447;1260;43582;-60
2023/09/22 03:41:18;;;;;;;9.00;4.10;;;;;;;18.57;100.00;98715.45;180496;1261;43539;-60
2023/09/22 03:45:22;;;;;;;6.10;3.40;;;;;;;18.58;100.00;98721.92;180434;1260;43821;-60
2023/09/22 03:49:25;;;;;;;9.30;4.60;;;;;;;18.43;100.00;98712.77;180419;1262;43531;-60
2023/09/22 03:53:28;;;;;;;5.90;4.80;;;;;;;18.39;100.00;98706.02;180524;1261;58423;-60
2023/09/22 03:57:31;;;;;;;14.30;5.10;;;;;;;18.28;100.00;98696.95;180462;1260;44715;-60
2023/09/22 04:01:37;;;;;;;9.70;4.30;;;;;;;18.24;100.00;98717.41;180573;1261;46089;-60
2023/09/22 04:05:43;;;;;;;4.80;2.70;;;;;;;18.29;100.00;98771.21;180427;1259;43879;-60
2023/09/22 04:09:59;;;;;;;5.70;3.50;;;;;;;18.34;100.00;98756.59;180544;1259;44671;-60
2023/09/22 04:14:03;;;;;;;8.40;3.60;;;;;;;18.41;100.00;98769.39;180432;1259;58780;-60
2023/09/22 04:18:07;;;;;;;4.20;3.50;;;;;;;18.50;100.00;98770.43;180490;1261;45041;-60
2023/09/22 04:22:30;;;;;;;9.30;4.80;;;;;;;18.43;100.00;98791.61;180395;1259;45515;-60
2023/09/22 04:26:42;;;;;;;6.00;3.90;;;;;;;18.42;100.00;98784.16;180526;1262;46244;-59
2023/09/22 04:31:12;;;;;;;8.60;4.80;;;;;;;18.47;100.00;98783.23;180500;1258;43739;-59
2023/09/22 04:35:16;;;;;;;8.80;4.00;;;;;;;18.41;100.00;98785.73;180561;1260;58241;-59
2023/09/22 04:39:21;;;;;;;6.70;3.80;;;;;;;18.46;100.00;98791.55;180326;1260;44670;-59
2023/09/22 04:43:24;;;;;;;5.70;4.40;;;;;;;18.53;100.00;98792.15;180502;1261;43914;-59
2023/09/22 04:47:32;;;;;;;8.10;4.10;;;;;;;18.55;100.00;98797.55;180372;1261;43795;-59
2023/09/22 04:51:40;;;;;;;4.70;3.40;;;;;;;18.63;100.00;98802.66;180437;1260;45832;-59
2023/09/22 04:55:46;;;;;;;6.80;4.10;;;;;;;18.66;100.00;98807.90;180439;1260;58558;-59
2023/09/22 04:59:53;;;;;;;10.00;4.50;;;;;;;18.76;100.00;98809.59;180367;1259;44662;-60
2023/09/22 05:03:59;;;;;;;10.90;4.00;;;;;;;18.89;100.00;98819.63;180216;1260;45008;-60
2023/09/22 05:08:05;;;;;;;5.50;2.90;;;;;;;19.11;100.00;98816.59;180317;1259;43610;-59
2023/09/22 05:12:09;;;;;;;9.70;3.70;;;;;;;19.28;100.00;98824.55;180573;1263;44100;-59
2023/09/22 05:16:13;;;;;;;7.00;4.80;;;;;;;19.28;100.00;98835.13;180435;1260;58405;-59
2023/09/22 05:20:20;;;;;;;7.80;3.40;;;;;;;19.45;100.00;98846.16;180367;1263;46042;-59
2023/09/22 05:24:23;;;;;;;8.00;4.00;;;;;;;19.72;100.00;98843.48;180492;1260;45176;-59
2023/09/22 05:28:27;;;;;;;6.90;4.00;;;;;;;19.76;100.00;98851.79;180397;1259;46050;-59
2023/09/22 05:32:30;;;;;;;8.00;3.90;;;;;;;19.71;100.00;98864.66;180458;1260;44821;-59
2023/09/22 05:36:37;;;;;;;9.50;4.70;;;;;;;19.67;100.00;98872.80;180401;1259;57471;-59
2023/09/22 05:40:45;;;;;;;5.50;4.00;;;;;;;19.69;100.00;98879.88;180458;1260;45868;-59
2023/09/22 05:44:55;;;;;;;5.80;5.00;;;;;;;19.78;100.00;98881.98;180489;1259;45937;-60
2023/09/22 05:48:58;;;;;;;8.10;4.00;;;;;;;19.88;100.00;98888.64;180428;1260;45930;-59
2023/09/22 05:53:04;;;;;;;10.90;3.70;;;;;;;20.01;100.00;98887.23;180462;1259;43782;-59
2023/09/22 05:57:08;;;;;;;10.00;5.10;;;;;;;20.04;100.00;98888.02;180463;1259;59045;-59
2023/09/22 06:01:16;;;;;;;7.30;4.20;;;;;;;20.08;100.00;98885.81;180387;1259;44123;-59
2023/09/22 06:05:23;;;;;;;10.80;3.90;;;;;;;20.23;100.00;98891.45;180350;1259;45439;-59
2023/09/22 06:09:27;;;;;;;8.60;4.90;;;;;;;20.43;100.00;98890.70;180345;1263;46191;-59
2023/09/22 06:13:30;;;;;;;7.40;4.80;;;;;;;20.58;100.00;98877.06;180118;1259;45117;-59
2023/09/22 06:17:37;;;;;;;11.20;4.30;;;;;;;20.74;100.00;98885.81;180339;1259;58885;-59
2023/09/22 06:21:41;;;;;;;9.50;4.70;;;;;;;20.94;100.00;98893.31;180255;1260;43676;-59
2023/09/22 06:25:45;;;;;;;6.20;4.70;;;;;;;21.13;100.00;98897.64;180329;1260;43491;-59
2023/09/22 06:29:50;;;;;;;7.60;4.00;;;;;;;21.33;100.00;98917.86;180368;1259;43590;-59
2023/09/22 06:33:54;;;;;;;6.90;4.80;;;;;;;21.52;100.00;98922.54;180331;1260;45856;-59
2023/09/22 06:38:00;;;;;;;7.30;3.70;;;;;;;21.69;100.00;98941.08;180425;1259;59345;-59
2023/09/22 06:42:04;;;;;;;4.10;3.10;;;;;;;21.81;100.00;98951.89;180403;1260;45330;-59
2023/09/22 06:46:09;;;;;;;6.50;3.50;;;;;;;21.85;100.00;98956.16;180349;1259;43984;-59
2023/09/22 06:50:15;;;;;;;7.30;4.60;;;;;;;21.86;100.00;98948.92;180647;1260;43479;-59
2023/09/22 06:54:20;;;;;;;5.20;2.90;;;;;;;21.64;100.00;98944.09;180510;1259;43804;-59
2023/09/22 06:58:31;;;;;;;7.00;3.80;;;;;;;21.47;100.00;98937.13;180480;1259;58206;-59
2023/09/22 07:02:34;;;;;;;6.20;3.20;;;;;;;21.48;100.00;98933.34;180350;1260;43611;-59
2023/09/22 07:06:39;;;;;;;6.60;3.30;;;;;;;21.68;100.00;98943.11;180456;1260;43771;-60
2023/09/22 07:10:45;;;;;;;4.00;2.90;;;;;;;21.82;99.93;98947.58;180417;1261;44917;-59
2023/09/22 07:14:55;;;;;;;4.70;3.30;;;;;;;21.98;99.91;98949.05;180444;1260;45023;-60
2023/09/22 07:19:00;;;;;;;5.70;3.70;;;;;;;22.08;97.73;98954.65;180399;1259;59606;-60
2023/09/22 07:23:06;;;;;;;1.90;1.30;;;;;;;21.98;99.30;98968.16;180399;1259;43921;-60
2023/09/22 07:27:09;;;;;;;4.60;2.00;;;;;;;21.88;98.48;98978.64;172815;1258;10152681;-60
2023/09/22 07:31:18;;;;;;;3.10;2.30;;;;;;;21.73;97.01;98979.33;180275;1262;44959;-59
2023/09/22 07:35:24;;;;;;;4.30;1.90;;;;;;;21.78;96.21;98967.45;180300;1259;58139;-60
2023/09/22 07:39:28;;;;;;;1.80;1.10;;;;;;;22.01;94.17;98962.07;180500;1258;45955;-60
2023/09/22 07:43:35;;;;;;;2.70;1.60;;;;;;;22.30;93.40;98966.90;180589;1258;43714;-60
2023/09/22 07:47:39;;;;;;;1.10;0.80;;;;;;;22.44;90.74;98954.99;180505;1259;45892;-60
2023/09/22 07:51:43;;;;;;;3.00;0.80;;;;;;;22.59;89.65;98939.45;180457;1259;43577;-60
2023/09/22 07:55:48;;;;;;;1.60;0.90;;;;;;;22.80;89.59;98955.02;180428;1260;58273;-60
2023/09/22 07:59:52;;;;;;;2.60;1.00;;;;;;;22.87;89.54;98964.26;180399;1259;50897;-60
2023/09/22 08:04:52;;;;;;;12.80;2.20;;;;;;;22.89;89.08;98974.14;180479;1259;46110;-60
2023/09/22 08:08:56;;;;;;;0.90;0.80;;;;;;;22.90;88.22;98995.06;180424;1259;43647;-60
2023/09/22 08:13:02;;;;;;;4.00;1.30;;;;;;;22.61;88.03;98994.56;180357;1259;43604;-59
2023/09/22 08:17:06;;;;;;;2.20;1.00;;;;;;;22.33;89.44;98995.91;180430;1259;58729;-60
2023/09/22 08:21:15;;;;;;;0.90;0.90;;;;;;;22.23;90.48;99007.27;180410;1259;44394;-60
2023/09/22 08:25:24;;;;;;;2.70;1.20;;;;;;;22.36;90.25;99015.31;180457;1258;43662;-60
2023/09/22 08:29:28;;;;;;;1.40;0.80;;;;;;;22.28;90.39;99024.12;180520;1259;45923;-60
2023/09/22 08:33:35;;;;;;;4.10;1.40;;;;;;;22.24;90.88;99038.39;180412;1259;44293;-60
2023/09/22 08:37:42;;;;;;;3.70;0.90;;;;;;;22.35;90.39;99044.22;180361;1259;58539;-60
2023/09/22 08:41:46;;;;;;;2.70;0.90;;;;;;;22.44;90.02;99050.58;180435;1259;46010;-60
2023/09/22 08:45:51;;;;;;;3.20;1.30;;;;;;;22.48;88.05;99044.85;180403;1260;43625;-60
2023/09/22 08:49:54;;;;;;;10.60;1.90;;;;;;;22.34;90.46;99055.67;180472;1259;43835;-60
2023/09/22 08:53:58;;;;;;;2.00;1.10;;;;;;;22.32;90.46;99052.56;180519;1259;45007;-60
2023/09/22 08:58:03;;;;;;;3.70;2.80;;;;;;;22.40;92.23;99048.67;180327;1259;58473;-60
2023/09/22 09:02:10;;;;;;;5.00;2.20;;;;;;;22.41;92.93;99057.91;180423;1258;45924;-59
2023/09/22 09:06:21;;;;;;;4.60;2.00;;;;;;;22.52;92.56;99068.75;180497;1260;46171;-59
2023/09/22 09:10:29;;;;;;;3.20;1.60;;;;;;;22.45;91.82;99067.77;180486;1258;46010;-59
2023/09/22 09:14:32;;;;;;;2.60;1.50;;;;;;;22.32;94.32;99071.99;180513;1258;45014;-59
2023/09/22 09:18:37;;;;;;;2.30;1.10;;;;;;;22.18;94.57;99080.81;180487;1258;57291;-60
2023/09/22 09:22:40;;;;;;;2.50;1.30;;;;;;;22.00;92.12;99075.80;180442;1258;43957;-60
2023/09/22 09:26:45;;;;;;;3.70;1.30;;;;;;;21.95;92.75;99073.98;180346;1260;46063;-60
2023/09/22 09:31:18;;;;;;;6.20;2.10;;;;;;;21.94;94.76;99064.55;180489;1259;44720;-59
2023/09/22 09:35:30;;;;;;;3.70;1.60;;;;;;;22.08;93.45;99062.95;180339;1258;44773;-59
2023/09/22 09:39:58;;;;;;;39.70;8.20;;;;;;;22.29;90.79;99058.13;180333;1259;57493;-59
2023/09/22 09:44:06;;;;;;;18.20;1.80;;;;;;;22.35;88.41;99050.13;180462;1259;46017;-59
2023/09/22 09:48:16;;;;;;;2.20;0.40;;;;;;;22.40;87.29;99042.00;180581;1259;45939;-59
2023/09/22 09:52:31;;;;;;;0.60;0.50;;;;;;;22.49;86.69;99044.91;180583;1259;45943;-59
2023/09/22 09:56:46;;;;;;;1.20;0.60;;;;;;;22.61;85.91;99050.10;180530;1258;43521;-59
2023/09/22 10:00:51;;;;;;;1.70;1.00;;;;;;;22.65;86.37;99057.89;180417;1258;58726;-59
2023/09/22 10:04:58;;;;;;;0.90;0.50;;;;;;;22.76;85.72;99049.90;180538;1259;45993;-59
2023/09/22 10:09:09;;;;;;;1.60;0.80;;;;;;;22.91;85.30;99055.17;180445;1259;43520;-59
2023/09/22 10:13:14;;;;;;;1.90;0.70;;;;;;;23.04;85.19;99057.77;180529;1259;43663;-59
2023/09/22 10:17:24;;;;;;;16.20;3.30;;;;;;;23.15;85.26;99062.03;180423;1259;43539;-59
2023/09/22 10:26:16;;;;;;;2.50;1.20;;;;;;;23.42;83.26;99071.13;175937;1260;44839;-59
2023/09/22 10:30:20;;;;;;;3.10;1.10;;;;;;;23.48;82.62;99065.77;180052;1260;45934;-60
2023/09/22 10:34:53;;;;;;;3.30;1.30;;;;;;;23.44;82.69;99073.45;180075;1261;46205;-59
2023/09/22 10:38:58;;;;;;;4.60;1.60;;;;;;;23.41;84.67;99086.62;180199;1260;43709;-59
2023/09/22 10:43:03;;;;;;;;;;;;;;;23.35;84.58;99090.75;180111;1261;58912;-59
2023/09/22 10:48:03;;;;;;;2.40;1.20;;;;;;;23.27;84.98;99089.48;180196;1260;44528;-59
2023/09/22 10:52:14;;;;;;;4.70;1.10;;;;;;;22.97;85.30;99094.73;180277;1260;44505;-60
2023/09/22 10:56:19;;;;;;;3.50;1.30;;;;;;;22.89;85.48;99094.88;180289;1261;44620;-59
2023/09/22 11:00:26;;;;;;;3.20;1.00;;;;;;;22.65;87.07;99096.42;180279;1261;43747;-60
2023/09/22 11:04:42;;;;;;;11.10;1.80;;;;;;;22.52;88.60;99094.10;180286;1261;58454;-59
2023/09/22 11:08:51;;;;;;;1.00;0.60;;;;;;;22.43;88.39;99106.83;180266;1260;46534;-59
2023/09/22 11:12:56;;;;;;;5.80;1.60;;;;;;;22.42;89.45;99106.33;180140;1262;44865;-59
2023/09/22 11:17:00;;;;;;;3.00;0.90;;;;;;;22.31;89.14;99108.52;180061;1263;43955;-58
2023/09/22 11:21:08;;;;;;;3.50;1.00;;;;;;;22.16;89.49;99111.71;180011;1262;43528;-58
2023/09/22 11:25:31;;;;;;;1.30;0.50;;;;;;;22.07;90.13;99106.59;180002;1262;58749;-58
2023/09/22 11:29:35;;;;;;;4.10;0.40;;;;;;;22.02;90.04;99108.00;180049;1261;44898;-59
2023/09/22 11:33:47;;;;;;;3.00;1.20;;;;;;;21.96;89.92;99109.99;180335;1261;46018;-60
2023/09/22 11:37:53;;;;;;;1.10;0.80;;;;;;;21.89;91.10;99111.35;180174;1262;43592;-59
2023/09/22 11:41:57;;;;;;;0.80;0.70;;;;;;;21.84;91.33;99114.04;180364;1260;44709;-59
2023/09/22 11:46:14;;;;;;;3.50;0.50;;;;;;;21.78;91.72;99116.70;180239;1261;58186;-58
2023/09/22 11:50:25;;;;;;;2.70;0.80;;;;;;;21.77;92.48;99119.90;180255;1260;43506;-60
2023/09/22 11:54:31;;;;;;;2.60;1.80;;;;;;;21.82;92.63;99121.23;180273;1261;45892;-60
2023/09/22 11:58:38;;;;;;;0.90;0.50;;;;;;;21.73;91.97;99119.13;180277;1260;43916;-61
2023/09/22 12:02:47;;;;;;;5.50;1.90;;;;;;;21.51;93.56;99126.40;180228;1261;46048;-60
2023/09/22 12:06:54;;;;;;;18.60;7.50;;;;;;;21.27;93.67;99139.48;180373;1261;59333;-61
2023/09/22 12:11:16;;;;;;;16.60;6.60;;;;;;;21.13;93.87;99149.56;180299;1264;44745;-61
2023/09/22 12:15:20;;;;;;;16.90;6.50;;;;;;;21.04;94.16;99155.98;180247;1262;43553;-60
2023/09/22 12:19:26;;;;;;;5.20;1.10;;;;;;;20.95;94.96;99150.68;180428;1260;44040;-59
2023/09/22 12:23:34;;;;;;;2.30;0.80;;;;;;;20.71;93.55;99146.71;180282;1261;46011;-60
2023/09/22 12:27:42;;;;;;;6.50;3.30;;;;;;;20.61;93.53;99149.77;180231;1261;59201;-60
2023/09/22 12:31:48;;;;;;;10.60;3.80;;;;;;;20.55;93.48;99148.30;180369;1259;45910;-60
2023/09/22 12:35:54;;;;;;;9.10;3.10;;;;;;;20.53;93.13;99144.81;180491;1259;46108;-59
2023/09/22 12:40:04;;;;;;;2.90;1.10;;;;;;;20.45;94.13;99156.38;180436;1259;44759;-60
2023/09/22 12:44:12;;;;;;;;;;;;;;;20.36;95.09;99165.90;180636;1259;43887;-60
2023/09/22 12:48:23;;;;;;;5.40;1.20;;;;;;;20.33;96.86;99171.36;180452;1259;58665;-60
2023/09/22 12:52:32;;;;;;;22.10;3.60;;;;;;;20.33;97.29;99184.88;180427;1259;43920;-60
2023/09/22 12:56:37;;;;;;;1.40;0.60;;;;;;;20.26;97.99;99201.23;180318;1259;43894;-60
2023/09/22 13:00:43;;;;;;;1.10;0.70;;;;;;;19.84;98.64;99209.00;180265;1259;43569;-59
2023/09/22 13:04:49;;;;;;;2.20;0.90;;;;;;;19.45;99.99;99219.56;180342;1259;43610;-60
2023/09/22 13:08:55;;;;;;;1.60;1.00;;;;;;;19.29;100.00;99220.29;180299;1259;57923;-59
2023/09/22 13:12:59;;;;;;;4.20;1.50;;;;;;;19.08;100.00;99216.80;180317;1259;46060;-59
2023/09/22 13:17:02;;;;;;;1.60;1.00;;;;;;;18.94;100.00;99205.52;180502;1259;44601;-60
2023/09/22 13:21:15;;;;;;;1.70;1.20;;;;;;;18.79;100.00;99204.35;180475;1263;43875;-59
2023/09/22 13:25:18;;;;;;;3.40;0.90;;;;;;;18.70;100.00;99215.99;180538;1259;43572;-60
2023/09/22 13:29:23;;;;;;;14.10;2.20;;;;;;;18.61;100.00;99227.77;180385;1258;58579;-60
2023/09/22 13:33:28;;;;;;;2.80;1.70;;;;;;;18.50;100.00;99221.21;180543;1258;44909;-59
2023/09/22 13:37:32;;;;;;;;;;;;;;;18.38;100.00;99226.91;180556;1259;44969;-58
2023/09/22 13:41:35;;;;;;;4.40;1.20;;;;;;;18.19;100.00;99236.54;180515;1259;44354;-60
2023/09/22 13:45:41;;;;;;;6.00;2.10;;;;;;;18.12;100.00;99240.36;180326;1259;43684;-59
2023/09/22 13:49:44;;;;;;;1.80;1.20;;;;;;;18.07;100.00;99242.54;180422;1262;57639;-59
2023/09/22 13:53:47;;;;;;;1.70;0.90;;;;;;;17.98;100.00;99249.16;180239;1260;44035;-60
2023/09/22 13:57:52;;;;;;;1.10;1.00;;;;;;;17.87;100.00;99257.67;180376;1259;44746;-60
2023/09/22 14:01:57;;;;;;;1.60;0.70;;;;;;;17.95;100.00;99267.65;180346;1259;43661;-60
2023/09/22 14:06:01;;;;;;;1.50;0.70;;;;;;;17.81;100.00;99277.64;180498;1259;43787;-60
2023/09/22 14:10:10;;;;;;;1.80;1.20;;;;;;;17.78;100.00;99285.52;180426;1259;58439;-59
2023/09/22 14:14:21;;;;;;;2.20;0.90;;;;;;;17.52;100.00;99290.14;180223;1262;45148;-60
2023/09/22 14:18:29;;;;;;;2.70;1.00;;;;;;;17.38;100.00;99280.38;180422;1259;44660;-60
2023/09/22 14:22:33;;;;;;;4.80;2.70;;;;;;;17.31;100.00;99272.67;180331;1259;44639;-60
2023/09/22 14:26:37;;;;;;;3.40;2.30;;;;;;;17.26;100.00;99283.47;180380;1259;43818;-61
2023/09/22 14:30:47;;;;;;;1.20;0.90;;;;;;;17.12;100.00;99294.21;180308;1259;58252;-61
2023/09/22 14:34:53;;;;;;;;;;;;;;;17.06;100.00;99304.33;180385;1259;43654;-60
2023/09/22 14:39:00;;;;;;;4.00;0.90;;;;;;;17.05;100.00;99302.58;180473;1263;44486;-61
2023/09/22 14:43:08;;;;;;;2.30;0.80;;;;;;;17.06;100.00;99302.09;180331;1259;45811;-62
2023/09/22 14:47:20;;;;;;;2.10;1.10;;;;;;;16.98;100.00;99313.79;180432;1259;43664;-61
2023/09/22 14:51:26;;;;;;;7.40;0.90;;;;;;;17.00;100.00;99311.99;180547;1259;60222;-62
2023/09/22 14:55:33;;;;;;;1.10;1.00;;;;;;;17.03;100.00;99317.52;180528;1258;43825;-60
2023/09/22 14:59:39;;;;;;;3.20;1.80;;;;;;;16.94;100.00;99320.46;180304;1259;46071;-61
2023/09/22 15:03:45;;;;;;;2.40;1.40;;;;;;;16.96;100.00;99322.81;180528;1259;44101;-61
2023/09/22 15:07:52;;;;;;;2.60;1.00;;;;;;;17.03;100.00;99321.31;180466;1259;43723;-61
2023/09/22 15:11:56;;;;;;;6.40;1.50;;;;;;;17.09;100.00;99335.40;180488;1259;59717;-60
2023/09/22 15:21:06;;;;;;;1.10;1.10;;;;;;;17.06;100.00;99344.75;180580;1259;44153;-62
2023/09/22 15:25:12;;;;;;;1.60;1.00;;;;;;;17.09;100.00;99334.50;180487;1259;44494;-59
2023/09/22 15:29:16;;;;;;;1.60;1.10;;;;;;;17.17;100.00;99327.95;180590;1259;44021;-59
2023/09/22 15:33:20;;;;;;;3.90;1.70;;;;;;;17.23;100.00;99326.73;180411;1259;59910;-59
2023/09/22 15:37:52;;;;;;;4.00;2.40;;;;;;;17.28;100.00;99326.40;180321;1258;43616;-60
2023/09/22 15:41:55;;;;;;;3.40;1.60;;;;;;;17.28;100.00;99331.14;180487;1259;46017;-61
2023/09/22 15:45:58;;;;;;;1.60;1.50;;;;;;;17.34;100.00;99336.45;180640;1259;44529;-60
2023/09/22 15:50:09;;;;;;;4.30;2.10;;;;;;;17.37;100.00;99344.79;180521;1263;44583;-60
2023/09/22 15:54:14;;;;;;;3.00;1.50;;;;;;;17.32;100.00;99345.48;180496;1259;57938;-60
2023/09/22 15:58:34;;;;;;;3.00;1.40;;;;;;;17.36;100.00;99351.27;180497;1259;45521;-59
2023/09/22 16:19:31;;;;;;;1.70;1.40;;;;;;;17.99;100.00;99364.54;176880;1282;582524;-59
2023/09/22 16:23:34;;;;;;;2.80;1.10;;;;;;;18.19;100.00;99377.81;179858;1265;61111;-59
2023/09/22 16:27:39;;;;;;;2.60;1.70;;;;;;;18.26;100.00;99376.70;179896;1266;45952;-59
2023/09/22 16:31:44;;;;;;;2.00;1.50;;;;;;;18.34;100.00;99376.02;179988;1265;44703;-59
2023/09/22 16:35:47;;;;;;;3.70;2.00;;;;;;;18.31;100.00;99367.69;179873;1265;46207;-59
2023/09/22 16:39:49;;;;;;;2.70;1.90;;;;;;;18.24;100.00;99378.61;179876;1265;44391;-59
2023/09/22 16:43:51;;;;;;;2.80;2.20;;;;;;;18.21;100.00;99382.73;179952;1265;57629;-60
2023/09/22 16:47:58;;;;;;;2.60;1.50;;;;;;;18.24;100.00;99380.77;180214;1262;44883;-60
2023/09/22 16:52:02;;;;;;;4.50;2.20;;;;;;;18.27;100.00;99379.59;180397;1261;44959;-61
2023/09/22 16:56:10;;;;;;;3.10;1.50;;;;;;;18.33;100.00;99369.90;180323;1260;45254;-60
2023/09/22 17:00:15;;;;;;;3.50;1.40;;;;;;;18.35;100.00;99368.73;180329;1261;43752;-60
2023/09/22 17:04:17;;;;;;;3.70;1.60;;;;;;;18.36;100.00;99355.29;180398;1261;58576;-60
2023/09/22 17:08:20;;;;;;;3.10;2.40;;;;;;;18.34;100.00;99345.88;180292;1262;45889;-61
2023/09/22 17:12:22;;;;;;;1.20;1.00;;;;;;;18.17;100.00;99355.30;180438;1260;43388;-60
2023/09/22 17:16:24;;;;;;;2.80;2.10;;;;;;;18.03;100.00;99350.84;181117;1254;44085;-61
2023/09/22 17:20:31;;;;;;;4.90;1.80;;;;;;;17.90;100.00;99354.41;181167;1254;43562;-60
2023/09/22 17:24:33;;;;;;;4.80;2.30;;;;;;;17.85;100.00;99363.73;181321;1253;58489;-61
2023/09/22 17:28:35;;;;;;;2.10;1.90;;;;;;;17.93;100.00;99367.06;181249;1253;44601;-60
2023/09/22 17:32:37;;;;;;;2.60;1.50;;;;;;;17.90;100.00;99368.12;181261;1253;45862;-61
2023/09/22 17:36:40;;;;;;;5.30;2.00;;;;;;;17.97;100.00;99368.91;181195;1253;43772;-60
2023/09/22 17:40:49;;;;;;;3.80;2.10;;;;;;;18.08;100.00;99372.77;181291;1253;45900;-60
2023/09/22 17:44:53;;;;;;;3.10;2.30;;;;;;;18.18;100.00;99377.92;180939;1253;59409;-60
2023/09/22 17:48:57;;;;;;;2.80;1.40;;;;;;;18.24;100.00;99388.80;181188;1254;43694;-61
2023/09/22 17:53:00;;;;;;;1.80;1.60;;;;;;;18.20;100.00;99400.80;181162;1253;45922;-59
2023/09/22 17:57:32;;;;;;;2.00;1.90;;;;;;;18.19;100.00;99391.02;181183;1253;44087;-59
2023/09/22 18:01:36;;;;;;;2.10;1.60;;;;;;;18.08;100.00;99378.70;181118;1253;44146;-59
2023/09/22 18:06:06;;;;;;;4.20;2.50;;;;;;;17.98;100.00;99388.41;181091;1254;58568;-59
2023/09/22 18:10:14;;;;;;;1.90;1.50;;;;;;;17.97;100.00;99393.63;181309;1253;43515;-60
2023/09/22 18:14:25;;;;;;;2.30;1.90;;;;;;;17.89;100.00;99372.58;181062;1253;43485;-60
2023/09/22 18:18:37;;;;;;;2.60;1.70;;;;;;;17.89;100.00;99380.08;180996;1253;46046;-60
2023/09/22 18:22:41;;;;;;;2.80;2.40;;;;;;;17.93;100.00;99385.31;181200;1253;43663;-61
2023/09/22 18:26:53;;;;;;;2.40;2.00;;;;;;;17.95;100.00;99375.72;181154;1254;58041;-60
2023/09/22 18:30:57;;;;;;;3.80;3.00;;;;;;;17.93;100.00;99366.39;181279;1253;43640;-60
2023/09/22 18:35:03;;;;;;;3.10;2.60;;;;;;;17.79;100.00;99362.37;181072;1253;44088;-60
2023/09/22 18:39:09;;;;;;;5.80;4.40;;;;;;;17.66;100.00;99366.20;181345;1253;45915;-60
2023/09/22 18:43:13;;;;;;;4.70;3.80;;;;;;;17.50;100.00;99363.43;181271;1253;43721;-59
2023/09/22 18:47:16;;;;;;;7.30;4.20;;;;;;;17.37;100.00;99371.34;181190;1254;58241;-59
2023/09/22 18:51:22;;;;;;;8.10;6.30;;;;;;;17.27;100.00;99369.34;181276;1253;43918;-60
2023/09/22 18:55:26;;;;;;;9.10;6.10;;;;;;;17.20;100.00;99365.73;181386;1253;43946;-58
2023/09/22 18:59:48;;;;;;;7.30;6.20;;;;;;;17.19;100.00;99359.80;181129;1253;46053;-60
2023/09/22 19:03:51;;;;;;;10.50;6.40;;;;;;;17.10;100.00;99368.80;181330;1253;46022;-59
2023/09/22 19:07:56;;;;;;;5.50;4.10;;;;;;;17.05;100.00;99367.46;181114;1253;58655;-60
2023/09/22 19:11:58;;;;;;;6.10;4.70;;;;;;;16.99;100.00;99382.48;181272;1254;43727;-59
2023/09/22 19:16:10;;;;;;;6.10;4.30;;;;;;;16.84;100.00;99391.13;181272;1253;44177;-60
2023/09/22 19:20:16;;;;;;;3.60;2.70;;;;;;;16.66;100.00;99407.24;181231;1253;43712;-60
2023/09/22 19:24:24;;;;;;;2.60;1.50;;;;;;;16.48;100.00;99414.07;181195;1253;44068;-60
2023/09/22 19:28:45;;;;;;;3.30;1.70;;;;;;;16.37;100.00;99411.75;181042;1254;59273;-59